Time;durP1;ratioP1;P1;durP2;ratioP2;P2;SDS_P1;SDS_P2;PMS_P1;PMS_P2;Temp;Humidity;BMP_temperature;BMP_pressure;BME280_temperature;BME280_humidity;BME280_pressure;Samples;Min_cycle;Max_cycle;Signal;HPM_P1;HPM_P2
2022/09/13 00:00:16;;;;;;;;;;;20.20;83.60;;;;;;5096954;28;19908;-56
2022/09/13 00:02:41;;;;;;;;;;;20.20;83.60;;;;;;5096697;28;20363;-53
2022/09/13 00:05:07;;;;;;;;;;;20.10;83.50;;;;;;5097158;28;19991;-55
2022/09/13 00:07:33;;;;;;;;;;;20.20;83.60;;;;;;5097099;28;20351;-53
2022/09/13 00:09:58;;;;;;;;;;;20.20;83.60;;;;;;5097058;28;19912;-55
2022/09/13 00:12:23;;;;;;;;;;;20.20;83.60;;;;;;5096772;28;19908;-52
2022/09/13 00:14:49;;;;;;;;;;;20.20;83.60;;;;;;5096996;28;20320;-52
2022/09/13 00:17:14;;;;;;;;;;;20.20;83.60;;;;;;5079117;28;19909;-54
2022/09/13 00:19:40;;;;;;;;;;;20.20;83.60;;;;;;5097015;28;19961;-52
2022/09/13 00:22:05;;;;;;;;;;;20.20;83.60;;;;;;5078380;28;20389;-52
2022/09/13 00:24:32;;;;;;;;;;;20.10;83.50;;;;;;5096920;28;19959;-56
2022/09/13 00:26:58;;;;;;;;;;;20.20;83.50;;;;;;5096361;28;19908;-54
2022/09/13 00:29:23;;;;;;;;;;;20.20;83.50;;;;;;5096960;28;19919;-54
2022/09/13 00:31:49;;;;;;;;;;;20.20;83.60;;;;;;5096355;28;20299;-51
2022/09/13 00:34:14;;;;;;;;;;;20.20;83.60;;;;;;5096294;28;19940;-55
2022/09/13 00:36:40;;;;;;;;;;;20.20;83.60;;;;;;5096275;28;19957;-53
2022/09/13 00:39:05;;;;;;;;;;;20.20;83.60;;;;;;5096622;28;19959;-55
2022/09/13 00:41:31;;;;;;;;;;;20.20;83.60;;;;;;5078396;28;19958;-53
2022/09/13 00:43:58;;;;;;;;;;;20.10;83.50;;;;;;5096106;28;19908;-54
2022/09/13 00:46:50;;;;;;;;;;;20.10;83.60;;;;;;5096403;28;19915;-56
2022/09/13 00:49:15;;;;;;;;;;;20.20;83.60;;;;;;5075044;28;19916;-56
2022/09/13 00:51:44;;;;;;;;;;;20.10;83.60;;;;;;5096032;28;19912;-54
2022/09/13 00:54:10;;;;;;;;;;;20.10;83.60;;;;;;5095988;28;19915;-53
2022/09/13 00:56:38;;;;;;;;;;;20.10;83.50;;;;;;5096232;28;19912;-53
2022/09/13 00:59:06;;;;;;;;;;;20.10;83.60;;;;;;5096249;28;19908;-54
2022/09/13 01:01:35;;;;;;;;;;;20.20;83.60;;;;;;5094995;28;19909;-53
2022/09/13 01:04:01;;;;;;;;;;;20.20;83.60;;;;;;5096026;28;19927;-52
2022/09/13 01:06:29;;;;;;;;;;;20.20;83.60;;;;;;5077848;28;19909;-51
2022/09/13 01:08:57;;;;;;;;;;;20.20;83.60;;;;;;5095825;28;19916;-53
2022/09/13 01:11:28;;;;;;;;;;;20.20;83.60;;;;;;5095884;28;20359;-54
2022/09/13 01:13:54;;;;;;;;;;;20.20;83.60;;;;;;5095902;28;19915;-55
2022/09/13 01:16:20;;;;;;;;;;;20.20;83.60;;;;;;5095856;28;19912;-54
2022/09/13 01:18:45;;;;;;;;;;;20.20;83.60;;;;;;5095515;28;19908;-56
2022/09/13 01:21:24;;;;;;;;;;;20.20;83.60;;;;;;5096067;28;19908;-56
2022/09/13 01:24:02;;;;;;;;;;;20.10;83.50;;;;;;5095377;28;19970;-56
2022/09/13 01:26:45;;;;;;;;;;;20.10;83.50;;;;;;5095401;28;19914;-55
2022/09/13 01:29:29;;;;;;;;;;;20.10;83.50;;;;;;5096020;28;19916;-51
2022/09/13 01:32:18;;;;;;;;;;;20.10;83.50;;;;;;5095186;28;19950;-56
2022/09/13 01:34:58;;;;;;;;;;;20.10;83.50;;;;;;5077330;28;19915;-52
2022/09/13 01:37:42;;;;;;;;;;;20.10;83.50;;;;;;5077285;28;19961;-55
2022/09/13 01:40:20;;;;;;;;;;;20.10;83.50;;;;;;5095309;28;19970;-54
2022/09/13 01:42:50;;;;;;;;;;;20.10;83.50;;;;;;5095353;28;19915;-54
2022/09/13 01:45:35;;;;;;;;;;;20.20;83.60;;;;;;5095315;28;19914;-54
2022/09/13 01:48:05;;;;;;;;;;;20.20;83.60;;;;;;5076534;28;20026;-52
2022/09/13 01:50:41;;;;;;;;;;;20.20;83.60;;;;;;5094802;28;19918;-51
2022/09/13 01:53:23;;;;;;;;;;;20.10;83.50;;;;;;5095352;28;19915;-56
2022/09/13 01:56:09;;;;;;;;;;;20.10;83.50;;;;;;5095147;28;19931;-55
2022/09/13 01:58:37;;;;;;;;;;;20.10;83.50;;;;;;5094697;28;19908;-51
2022/09/13 02:01:15;;;;;;;;;;;20.10;83.60;;;;;;5076993;28;19908;-54
2022/09/13 02:03:43;;;;;;;;;;;20.10;83.60;;;;;;5094980;28;19928;-55
2022/09/13 02:06:12;;;;;;;;;;;20.10;83.60;;;;;;5094853;28;19908;-55
2022/09/13 02:08:38;;;;;;;;;;;20.10;83.50;;;;;;5094793;28;20339;-51
2022/09/13 02:11:07;;;;;;;;;;;20.10;83.50;;;;;;5095007;28;19973;-53
2022/09/13 02:13:58;;;;;;;;;;;20.10;83.50;;;;;;5094603;28;19908;-53
2022/09/13 02:16:27;;;;;;;;;;;20.10;83.60;;;;;;5091550;28;19908;-53
2022/09/13 02:18:54;;;;;;;;;;;20.10;83.60;;;;;;5094620;28;19915;-53
2022/09/13 02:21:25;;;;;;;;;;;20.10;83.60;;;;;;5094611;28;19951;-54
2022/09/13 02:24:09;;;;;;;;;;;20.10;83.60;;;;;;5076498;28;19931;-56
2022/09/13 02:26:36;;;;;;;;;;;20.10;83.60;;;;;;5094203;28;19908;-53
2022/09/13 02:29:06;;;;;;;;;;;20.10;83.50;;;;;;5094635;28;19912;-54
2022/09/13 02:31:44;;;;;;;;;;;20.10;83.50;;;;;;5094630;28;20267;-53
2022/09/13 02:34:13;;;;;;;;;;;20.10;83.60;;;;;;5094490;28;20015;-53
2022/09/13 02:36:40;;;;;;;;;;;20.10;83.60;;;;;;5094186;28;19908;-52
2022/09/13 02:39:09;;;;;;;;;;;20.10;83.60;;;;;;5094465;28;19909;-55
2022/09/13 02:41:53;;;;;;;;;;;20.10;83.50;;;;;;5094511;28;19936;-55
2022/09/13 02:44:24;;;;;;;;;;;20.10;83.60;;;;;;5094037;28;20271;-54
2022/09/13 02:47:09;;;;;;;;;;;20.10;83.60;;;;;;5094355;28;19912;-55
2022/09/13 02:49:50;;;;;;;;;;;20.10;83.60;;;;;;5094610;28;19980;-54
2022/09/13 02:52:34;;;;;;;;;;;20.10;83.60;;;;;;5094517;28;19950;-56
2022/09/13 02:55:02;;;;;;;;;;;20.10;83.60;;;;;;5075952;28;19984;-56
2022/09/13 02:57:34;;;;;;;;;;;20.10;83.60;;;;;;5093870;28;19917;-54
2022/09/13 03:00:00;;;;;;;;;;;20.10;83.60;;;;;;5076062;28;19912;-56
2022/09/13 03:02:31;;;;;;;;;;;20.10;83.60;;;;;;5094177;28;20262;-53
2022/09/13 03:04:57;;;;;;;;;;;20.10;83.60;;;;;;5094335;28;19920;-55
2022/09/13 03:07:23;;;;;;;;;;;20.10;83.60;;;;;;5075548;28;19916;-53
2022/09/13 03:09:59;;;;;;;;;;;20.10;83.60;;;;;;5094325;28;19912;-55
2022/09/13 03:12:44;;;;;;;;;;;20.10;83.60;;;;;;5093786;28;19908;-56
2022/09/13 03:15:28;;;;;;;;;;;20.10;83.60;;;;;;5093945;28;20475;-56
2022/09/13 03:17:54;;;;;;;;;;;20.10;83.60;;;;;;5093955;28;19914;-54
2022/09/13 03:20:48;;;;;;;;;;;20.10;83.60;;;;;;5093920;28;20007;-55
2022/09/13 03:23:20;;;;;;;;;;;20.10;83.60;;;;;;5080721;28;19916;-54
2022/09/13 03:25:45;;;;;;;;;;;20.10;83.70;;;;;;5097576;28;19908;-52
2022/09/13 03:28:29;;;;;;;;;;;20.10;83.60;;;;;;5097778;28;19912;-53
2022/09/13 03:31:03;;;;;;;;;;;20.10;83.60;;;;;;5097648;28;19919;-52
2022/09/13 03:33:34;;;;;;;;;;;20.10;83.60;;;;;;5097742;28;19955;-56
2022/09/13 03:36:06;;;;;;;;;;;20.10;83.60;;;;;;5097350;28;19913;-52
2022/09/13 03:38:38;;;;;;;;;;;20.10;83.60;;;;;;5079432;28;19914;-55
2022/09/13 03:41:06;;;;;;;;;;;20.10;83.60;;;;;;5097326;28;19940;-54
2022/09/13 03:43:40;;;;;;;;;;;20.10;83.60;;;;;;5097465;28;19909;-52
2022/09/13 03:46:09;;;;;;;;;;;20.00;83.50;;;;;;5097123;28;19995;-52
2022/09/13 03:48:36;;;;;;;;;;;20.10;83.60;;;;;;5097447;28;20422;-53
2022/09/13 03:51:02;;;;;;;;;;;20.10;83.60;;;;;;5097321;28;20282;-53
2022/09/13 03:53:29;;;;;;;;;;;20.10;83.60;;;;;;5079092;28;19908;-54
2022/09/13 03:55:54;;;;;;;;;;;20.10;83.60;;;;;;5097269;28;19916;-54
2022/09/13 03:58:20;;;;;;;;;;;20.10;83.60;;;;;;5079036;28;19912;-53
2022/09/13 04:00:46;;;;;;;;;;;20.00;83.60;;;;;;5097213;28;19915;-50
2022/09/13 04:03:12;;;;;;;;;;;20.00;83.70;;;;;;5096826;28;20271;-52
2022/09/13 04:05:38;;;;;;;;;;;20.10;83.70;;;;;;5097522;28;19909;-54
2022/09/13 04:08:04;;;;;;;;;;;20.10;83.70;;;;;;5097011;28;20366;-52
2022/09/13 04:10:30;;;;;;;;;;;20.10;83.70;;;;;;5096944;28;20321;-51
2022/09/13 04:12:56;;;;;;;;;;;20.10;83.60;;;;;;5096861;28;19915;-55
2022/09/13 04:15:22;;;;;;;;;;;20.00;83.60;;;;;;5096562;28;19912;-53
2022/09/13 04:17:47;;;;;;;;;;;20.10;83.60;;;;;;5096777;28;19973;-53
2022/09/13 04:20:13;;;;;;;;;;;20.00;83.50;;;;;;5096784;28;19915;-54
2022/09/13 04:22:38;;;;;;;;;;;20.00;83.60;;;;;;5096809;28;19912;-51
2022/09/13 04:25:05;;;;;;;;;;;20.00;83.60;;;;;;5096404;28;19908;-52
2022/09/13 04:27:30;;;;;;;;;;;20.00;83.60;;;;;;5078359;28;19912;-51
2022/09/13 04:29:56;;;;;;;;;;;20.00;83.60;;;;;;5096326;28;20381;-53
2022/09/13 04:32:21;;;;;;;;;;;20.00;83.60;;;;;;5096203;28;19908;-56
2022/09/13 04:34:47;;;;;;;;;;;20.00;83.60;;;;;;5096748;28;19916;-54
2022/09/13 04:37:12;;;;;;;;;;;20.00;83.60;;;;;;5096378;28;20328;-51
2022/09/13 04:39:38;;;;;;;;;;;20.00;83.60;;;;;;5078172;28;20321;-53
2022/09/13 04:42:03;;;;;;;;;;;20.00;83.60;;;;;;5096052;28;19916;-54
2022/09/13 04:44:29;;;;;;;;;;;20.00;83.70;;;;;;5095915;28;20326;-56
2022/09/13 04:46:54;;;;;;;;;;;20.00;83.70;;;;;;5095499;28;19908;-54
2022/09/13 04:49:20;;;;;;;;;;;20.00;83.60;;;;;;5077943;28;19963;-53
2022/09/13 04:51:46;;;;;;;;;;;20.00;83.60;;;;;;5096724;28;20337;-50
2022/09/13 04:54:12;;;;;;;;;;;20.00;83.70;;;;;;5096081;28;20343;-56
2022/09/13 04:56:38;;;;;;;;;;;20.00;83.60;;;;;;5095649;28;19908;-52
2022/09/13 04:59:03;;;;;;;;;;;20.00;83.70;;;;;;5095868;28;20274;-54
2022/09/13 05:01:29;;;;;;;;;;;20.00;83.60;;;;;;5095691;28;20386;-55
2022/09/13 05:03:54;;;;;;;;;;;20.00;83.70;;;;;;5074078;28;19994;-54
2022/09/13 05:06:20;;;;;;;;;;;20.00;83.70;;;;;;5075624;28;20006;-51
2022/09/13 05:08:51;;;;;;;;;;;20.00;83.70;;;;;;5075360;28;19913;-56
2022/09/13 05:11:16;;;;;;;;;;;20.00;83.50;;;;;;5075532;28;19935;-54
2022/09/13 05:13:42;;;;;;;;;;;20.00;83.60;;;;;;5075638;28;19909;-54
2022/09/13 05:16:07;;;;;;;;;;;20.00;83.60;;;;;;5075321;28;19966;-55
2022/09/13 05:18:35;;;;;;;;;;;20.00;83.60;;;;;;5075312;28;19995;-55
2022/09/13 05:21:01;;;;;;;;;;;20.10;83.60;;;;;;5074838;28;20342;-56
2022/09/13 05:23:27;;;;;;;;;;;20.00;83.50;;;;;;5074779;28;20252;-55
2022/09/13 05:25:57;;;;;;;;;;;20.00;83.50;;;;;;5073624;28;19908;-52
2022/09/13 05:28:23;;;;;;;;;;;20.10;83.50;;;;;;5074351;28;19913;-53
2022/09/13 05:30:55;;;;;;;;;;;20.10;83.60;;;;;;5074529;28;19942;-55
2022/09/13 05:33:21;;;;;;;;;;;20.10;83.50;;;;;;5074801;28;20268;-54
2022/09/13 05:35:46;;;;;;;;;;;20.10;83.50;;;;;;5073259;28;19999;-54
2022/09/13 05:38:12;;;;;;;;;;;20.10;83.50;;;;;;5074627;28;19909;-54
2022/09/13 05:40:37;;;;;;;;;;;20.10;83.50;;;;;;5074688;28;19909;-54
2022/09/13 05:43:02;;;;;;;;;;;20.10;83.40;;;;;;5074251;28;20278;-55
2022/09/13 05:45:28;;;;;;;;;;;20.10;83.40;;;;;;5073218;28;19908;-53
2022/09/13 05:47:53;;;;;;;;;;;20.10;83.40;;;;;;5074250;28;19912;-55
2022/09/13 05:50:19;;;;;;;;;;;20.10;83.40;;;;;;5072989;28;19916;-52
2022/09/13 05:52:50;;;;;;;;;;;20.10;83.40;;;;;;5074324;28;20004;-54
2022/09/13 05:55:15;;;;;;;;;;;20.10;83.40;;;;;;5074197;28;20283;-54
2022/09/13 05:57:41;;;;;;;;;;;20.10;83.40;;;;;;5074283;28;19913;-53
2022/09/13 06:00:06;;;;;;;;;;;20.10;83.40;;;;;;5073090;28;19981;-56
2022/09/13 06:02:32;;;;;;;;;;;20.10;83.40;;;;;;5074160;28;19908;-55
2022/09/13 06:04:57;;;;;;;;;;;20.10;83.40;;;;;;5092792;28;19947;-56
2022/09/13 06:07:23;;;;;;;;;;;20.10;83.40;;;;;;5094390;28;19918;-53
2022/09/13 06:09:48;;;;;;;;;;;20.10;83.30;;;;;;5076305;28;19912;-50
2022/09/13 06:12:14;;;;;;;;;;;20.10;83.40;;;;;;5094576;28;19953;-55
2022/09/13 06:14:39;;;;;;;;;;;20.10;83.40;;;;;;5094241;28;20342;-55
2022/09/13 06:17:05;;;;;;;;;;;20.10;83.30;;;;;;5094301;28;19909;-52
2022/09/13 06:19:30;;;;;;;;;;;20.10;83.30;;;;;;5093841;28;19909;-52
2022/09/13 06:21:56;;;;;;;;;;;20.20;83.30;;;;;;5094183;28;19908;-54
2022/09/13 06:24:21;;;;;;;;;;;20.20;83.30;;;;;;5093809;28;19908;-53
2022/09/13 06:26:47;;;;;;;;;;;20.20;83.30;;;;;;5093638;28;19915;-55
2022/09/13 06:29:12;;;;;;;;;;;20.20;83.30;;;;;;5093971;28;20266;-53
2022/09/13 06:31:42;;;;;;;;;;;20.20;83.30;;;;;;5094446;28;19954;-55
2022/09/13 06:34:09;;;;;;;;;;;20.20;83.30;;;;;;5075856;28;20011;-55
2022/09/13 06:36:34;;;;;;;;;;;20.20;83.20;;;;;;5093968;28;19912;-52
2022/09/13 06:39:00;;;;;;;;;;;20.10;83.20;;;;;;5093598;28;19938;-55
2022/09/13 06:41:26;;;;;;;;;;;20.20;83.20;;;;;;5093715;28;19908;-53
2022/09/13 06:43:53;;;;;;;;;;;20.10;83.10;;;;;;5093535;28;19908;-53
2022/09/13 06:46:21;;;;;;;;;;;20.20;83.20;;;;;;5093629;28;19999;-54
2022/09/13 06:48:47;;;;;;;;;;;20.20;83.20;;;;;;5093832;28;19981;-52
2022/09/13 06:51:14;;;;;;;;;;;20.20;83.20;;;;;;5093559;28;19916;-53
2022/09/13 06:53:41;;;;;;;;;;;20.20;83.20;;;;;;5094003;28;20355;-53
2022/09/13 06:56:09;;;;;;;;;;;20.20;83.20;;;;;;5075857;28;19964;-55
2022/09/13 06:58:35;;;;;;;;;;;20.20;83.20;;;;;;5093930;28;19908;-56
2022/09/13 07:01:10;;;;;;;;;;;20.20;83.20;;;;;;5098177;28;19969;-53
2022/09/13 07:03:36;;;;;;;;;;;20.20;83.20;;;;;;5079587;28;19927;-54
2022/09/13 07:06:06;;;;;;;;;;;20.20;83.20;;;;;;5079669;28;19908;-54
2022/09/13 07:08:33;;;;;;;;;;;20.20;83.20;;;;;;5097848;28;19990;-52
2022/09/13 07:10:59;;;;;;;;;;;20.20;83.20;;;;;;5098063;28;19974;-56
2022/09/13 07:13:24;;;;;;;;;;;20.20;83.20;;;;;;5097546;28;20372;-55
2022/09/13 07:15:50;;;;;;;;;;;20.20;83.20;;;;;;5097501;28;19919;-54
2022/09/13 07:18:15;;;;;;;;;;;20.20;83.20;;;;;;5097712;28;19908;-55
2022/09/13 07:20:40;;;;;;;;;;;20.20;83.20;;;;;;5097560;28;19965;-55
2022/09/13 07:23:06;;;;;;;;;;;20.20;83.10;;;;;;5097464;28;20347;-56
2022/09/13 07:25:31;;;;;;;;;;;20.20;83.10;;;;;;5079254;28;19994;-53
2022/09/13 07:27:57;;;;;;;;;;;20.20;83.10;;;;;;5096713;28;19916;-56
2022/09/13 07:30:24;;;;;;;;;;;20.20;83.10;;;;;;5079010;28;19912;-55
2022/09/13 07:32:50;;;;;;;;;;;20.20;83.20;;;;;;5097258;28;19919;-56
2022/09/13 07:35:15;;;;;;;;;;;20.20;83.10;;;;;;5097159;28;19908;-53
2022/09/13 07:37:41;;;;;;;;;;;20.20;83.10;;;;;;5097414;28;19964;-54
2022/09/13 07:40:07;;;;;;;;;;;20.20;83.10;;;;;;5097425;28;19939;-53
2022/09/13 07:42:32;;;;;;;;;;;20.20;83.10;;;;;;5097531;28;19908;-54
2022/09/13 07:44:57;;;;;;;;;;;20.20;83.10;;;;;;5079009;28;20252;-53
2022/09/13 07:47:23;;;;;;;;;;;20.20;83.10;;;;;;5078992;28;20011;-54
2022/09/13 07:49:49;;;;;;;;;;;20.20;83.10;;;;;;5079006;28;19938;-54
2022/09/13 07:52:14;;;;;;;;;;;20.20;83.10;;;;;;5096746;28;20287;-51
2022/09/13 07:54:40;;;;;;;;;;;20.20;83.10;;;;;;5096843;28;20355;-52
2022/09/13 07:57:05;;;;;;;;;;;20.20;83.10;;;;;;5096805;28;19908;-54
2022/09/13 07:59:31;;;;;;;;;;;20.20;83.10;;;;;;5096887;28;19915;-53
2022/09/13 08:01:56;;;;;;;;;;;20.20;83.10;;;;;;5096549;28;19915;-53
2022/09/13 08:04:23;;;;;;;;;;;20.30;83.10;;;;;;5096798;28;19956;-53
2022/09/13 08:06:49;;;;;;;;;;;20.20;83.10;;;;;;5096709;28;19908;-52
2022/09/13 08:09:14;;;;;;;;;;;20.30;83.10;;;;;;5077909;28;20359;-52
2022/09/13 08:11:41;;;;;;;;;;;20.20;83.00;;;;;;5096974;28;19967;-56
2022/09/13 08:14:08;;;;;;;;;;;20.30;83.10;;;;;;5096743;28;20358;-52
2022/09/13 08:16:34;;;;;;;;;;;20.30;83.10;;;;;;5096784;28;20278;-54
2022/09/13 08:19:00;;;;;;;;;;;20.20;83.00;;;;;;5096608;28;19912;-56
2022/09/13 08:21:30;;;;;;;;;;;20.30;83.00;;;;;;5078126;28;19908;-55
2022/09/13 08:23:58;;;;;;;;;;;20.30;83.00;;;;;;5078408;28;19909;-56
2022/09/13 08:26:24;;;;;;;;;;;20.30;83.00;;;;;;5096183;28;20255;-52
2022/09/13 08:28:54;;;;;;;;;;;20.30;83.00;;;;;;5096365;28;19920;-54
2022/09/13 08:31:21;;;;;;;;;;;20.30;83.00;;;;;;5096118;28;19999;-53
2022/09/13 08:33:49;;;;;;;;;;;20.30;83.00;;;;;;5078063;28;19908;-56
2022/09/13 08:36:15;;;;;;;;;;;20.30;83.00;;;;;;5096180;28;19954;-50
2022/09/13 08:38:48;;;;;;;;;;;20.30;83.00;;;;;;5096121;28;20299;-56
2022/09/13 08:41:26;;;;;;;;;;;20.30;83.00;;;;;;5096207;28;20363;-53
2022/09/13 08:43:54;;;;;;;;;;;20.30;83.00;;;;;;5095883;28;19908;-53
2022/09/13 08:46:28;;;;;;;;;;;20.30;83.00;;;;;;5095997;28;19916;-52
2022/09/13 08:48:56;;;;;;;;;;;20.30;83.00;;;;;;5096015;28;20415;-54
2022/09/13 08:51:33;;;;;;;;;;;20.30;83.00;;;;;;5096284;28;19916;-54
2022/09/13 08:53:59;;;;;;;;;;;20.30;83.00;;;;;;5095415;28;19908;-56
2022/09/13 08:56:30;;;;;;;;;;;20.30;83.00;;;;;;5095744;28;19915;-54
2022/09/13 08:59:05;;;;;;;;;;;20.30;83.00;;;;;;5095889;28;20348;-49
2022/09/13 09:01:37;;;;;;;;;;;20.30;83.00;;;;;;5078084;28;20298;-54
2022/09/13 09:04:03;;;;;;;;;;;20.30;83.00;;;;;;5095548;28;19969;-55
2022/09/13 09:06:28;;;;;;;;;;;20.30;82.90;;;;;;5077622;28;19958;-53
2022/09/13 09:09:01;;;;;;;;;;;20.30;83.50;;;;;;5095473;28;20012;-51
2022/09/13 09:11:30;;;;;;;;;;;20.30;82.90;;;;;;5095391;28;19912;-54
2022/09/13 09:14:18;;;;;;;;;;;20.30;82.90;;;;;;5095616;28;19915;-56
2022/09/13 09:16:46;;;;;;;;;;;20.30;83.00;;;;;;5095994;28;19999;-54
2022/09/13 09:19:21;;;;;;;;;;;20.30;83.00;;;;;;5077457;28;20283;-54
2022/09/13 09:21:48;;;;;;;;;;;20.30;83.00;;;;;;5094566;28;19908;-54
2022/09/13 09:24:21;;;;;;;;;;;20.30;83.00;;;;;;5077145;28;19908;-56
2022/09/13 09:26:46;;;;;;;;;;;20.30;82.90;;;;;;5095472;28;19909;-56
2022/09/13 09:29:20;;;;;;;;;;;20.30;82.90;;;;;;5095302;28;20006;-52
2022/09/13 09:31:50;;;;;;;;;;;20.30;82.90;;;;;;5077390;28;19943;-51
2022/09/13 09:34:25;;;;;;;;;;;20.30;82.90;;;;;;5094954;28;19911;-55
2022/09/13 09:37:03;;;;;;;;;;;20.30;82.90;;;;;;5094641;28;19954;-53
2022/09/13 09:39:32;;;;;;;;;;;20.30;82.90;;;;;;5094919;28;20000;-51
2022/09/13 09:41:58;;;;;;;;;;;20.30;82.90;;;;;;5094660;28;19966;-52
2022/09/13 09:44:26;;;;;;;;;;;20.30;82.90;;;;;;5094455;28;19908;-55
2022/09/13 09:46:56;;;;;;;;;;;20.30;82.90;;;;;;5076686;28;19915;-55
2022/09/13 09:52:17;;;;;;;;;;;20.30;82.90;;;;;;5094727;28;20045;-54
2022/09/13 09:54:43;;;;;;;;;;;20.30;82.90;;;;;;5094512;28;19961;-53
2022/09/13 09:57:10;;;;;;;;;;;20.30;83.00;;;;;;5094648;28;19909;-53
2022/09/13 09:59:36;;;;;;;;;;;20.30;82.90;;;;;;5094572;28;19908;-54
2022/09/13 10:02:10;;;;;;;;;;;20.30;82.90;;;;;;5094556;28;19908;-51
2022/09/13 10:04:36;;;;;;;;;;;20.30;82.90;;;;;;5094793;28;19920;-54
2022/09/13 10:07:28;;;;;;;;;;;20.30;82.90;;;;;;5094318;28;19912;-54
2022/09/13 10:09:57;;;;;;;;;;;20.30;82.90;;;;;;5091129;28;20022;-55
2022/09/13 10:12:26;;;;;;;;;;;20.30;82.90;;;;;;5075704;28;21634;-51
2022/09/13 10:15:01;;;;;;;;;;;20.30;82.90;;;;;;5094388;28;20342;-50
2022/09/13 10:17:26;;;;;;;;;;;20.30;82.90;;;;;;5076095;28;19915;-53
2022/09/13 10:19:53;;;;;;;;;;;20.30;82.90;;;;;;5094279;28;19908;-50
2022/09/13 10:22:18;;;;;;;;;;;20.30;82.90;;;;;;5075927;28;19908;-53
2022/09/13 10:24:44;;;;;;;;;;;20.30;82.90;;;;;;5094242;28;19908;-55
2022/09/13 10:27:21;;;;;;;;;;;20.30;82.90;;;;;;5093979;28;19919;-51
2022/09/13 10:29:47;;;;;;;;;;;20.30;82.90;;;;;;5094249;28;20359;-53
2022/09/13 10:32:15;;;;;;;;;;;20.30;82.90;;;;;;5094054;28;20362;-55
2022/09/13 10:34:41;;;;;;;;;;;20.30;82.90;;;;;;5093951;28;19947;-55
2022/09/13 10:37:16;;;;;;;;;;;20.30;82.90;;;;;;5094177;28;19985;-53
2022/09/13 10:39:51;;;;;;;;;;;20.40;83.00;;;;;;5093888;28;20355;-52
2022/09/13 10:42:19;;;;;;;;;;;20.30;82.90;;;;;;5093550;28;20281;-55
2022/09/13 10:44:51;;;;;;;;;;;20.30;82.90;;;;;;5093488;28;19996;-55
2022/09/13 10:47:43;;;;;;;;;;;20.30;82.90;;;;;;5093785;28;20256;-54
2022/09/13 10:50:17;;;;;;;;;;;20.30;82.90;;;;;;5090447;28;19912;-54
2022/09/13 10:52:53;;;;;;;;;;;20.30;82.90;;;;;;5094021;28;19908;-55
2022/09/13 10:55:18;;;;;;;;;;;20.30;82.90;;;;;;5093404;28;20378;-53
2022/09/13 10:57:44;;;;;;;;;;;20.30;82.90;;;;;;5093403;28;19908;-51
2022/09/13 11:00:11;;;;;;;;;;;20.30;82.90;;;;;;5093982;28;19919;-53
2022/09/13 11:02:46;;;;;;;;;;;20.40;83.00;;;;;;5075605;28;19912;-55
2022/09/13 11:05:23;;;;;;;;;;;20.30;82.90;;;;;;5093336;28;19920;-51
2022/09/13 11:08:18;;;;;;;;;;;20.30;82.90;;;;;;5074739;28;20023;-56
2022/09/13 11:10:43;;;;;;;;;;;20.30;82.90;;;;;;5038694;28;20368;-55
2022/09/13 11:13:18;;;;;;;;;;;20.30;82.90;;;;;;5093560;28;19966;-53
2022/09/13 11:15:48;;;;;;;;;;;20.40;83.00;;;;;;5093449;28;19930;-54
2022/09/13 11:18:29;;;;;;;;;;;20.40;83.00;;;;;;5093625;28;19934;-53
2022/09/13 11:21:06;;;;;;;;;;;20.30;82.90;;;;;;5092803;28;20003;-51
2022/09/13 11:23:37;;;;;;;;;;;20.40;83.00;;;;;;5093640;28;19931;-56
2022/09/13 11:26:21;;;;;;;;;;;20.30;82.90;;;;;;5093240;28;19909;-53
2022/09/13 11:28:56;;;;;;;;;;;20.40;83.00;;;;;;5093131;28;19912;-56
2022/09/13 11:31:22;;;;;;;;;;;20.40;83.00;;;;;;5093461;28;20017;-52
2022/09/13 11:33:59;;;;;;;;;;;20.40;83.00;;;;;;5075111;28;19947;-56
2022/09/13 11:36:50;;;;;;;;;;;20.40;83.00;;;;;;5092997;28;19997;-53
2022/09/13 11:39:21;;;;;;;;;;;20.40;83.00;;;;;;5075108;28;19984;-52
2022/09/13 11:41:56;;;;;;;;;;;20.40;83.00;;;;;;5093110;28;19908;-53
2022/09/13 11:44:34;;;;;;;;;;;20.40;83.00;;;;;;5093141;28;20413;-57
2022/09/13 11:47:18;;;;;;;;;;;20.40;83.00;;;;;;5097371;28;19919;-51
2022/09/13 11:49:44;;;;;;;;;;;20.40;83.00;;;;;;5097343;28;19919;-56
2022/09/13 11:52:21;;;;;;;;;;;20.40;83.00;;;;;;5079181;28;20010;-57
2022/09/13 11:55:07;;;;;;;;;;;20.40;83.00;;;;;;5097136;28;19908;-53
2022/09/13 11:57:38;;;;;;;;;;;20.40;83.00;;;;;;5097121;28;19974;-52
2022/09/13 12:00:06;;;;;;;;;;;20.40;83.00;;;;;;5097026;28;19908;-55
2022/09/13 12:02:38;;;;;;;;;;;20.40;83.00;;;;;;5096996;28;19958;-54
2022/09/13 12:05:04;;;;;;;;;;;20.40;83.00;;;;;;5097046;28;19965;-56
2022/09/13 12:07:36;;;;;;;;;;;20.40;83.00;;;;;;5096852;28;19920;-56
2022/09/13 12:10:24;;;;;;;;;;;20.40;83.20;;;;;;5096456;28;19935;-56
2022/09/13 12:12:51;;;;;;;;;;;20.40;83.00;;;;;;5088281;28;19923;-57
2022/09/13 12:15:19;;;;;;;;;;;20.40;83.00;;;;;;5096659;28;19915;-54
2022/09/13 12:17:55;;;;;;;;;;;20.40;83.00;;;;;;5096744;28;19915;-54
2022/09/13 12:20:29;;;;;;;;;;;20.40;83.50;;;;;;5096346;28;20008;-52
2022/09/13 12:22:57;;;;;;;;;;;20.40;83.00;;;;;;5096663;28;19915;-55
2022/09/13 12:25:24;;;;;;;;;;;20.40;82.90;;;;;;5078304;28;19931;-55
2022/09/13 12:28:01;;;;;;;;;;;20.40;82.50;;;;;;5096324;28;19916;-50
2022/09/13 12:30:41;;;;;;;;;;;20.40;82.90;;;;;;5096531;28;19912;-56
2022/09/13 12:33:06;;;;;;;;;;;20.40;82.90;;;;;;5096557;28;19915;-52
2022/09/13 12:35:39;;;;;;;;;;;20.40;83.00;;;;;;5096259;28;20301;-57
2022/09/13 12:38:10;;;;;;;;;;;20.40;82.90;;;;;;5096214;28;19908;-52
2022/09/13 12:40:55;;;;;;;;;;;20.40;82.90;;;;;;5077898;28;19930;-55
2022/09/13 12:43:33;;;;;;;;;;;20.40;82.90;;;;;;5096241;28;19919;-55
2022/09/13 12:46:07;;;;;;;;;;;20.40;82.90;;;;;;5095699;28;20320;-56
2022/09/13 12:48:51;;;;;;;;;;;20.40;82.90;;;;;;5096160;28;19981;-57
2022/09/13 12:51:35;;;;;;;;;;;20.40;82.90;;;;;;5096145;28;20118;-57
2022/09/13 12:54:18;;;;;;;;;;;20.40;83.00;;;;;;5077861;28;19908;-53
2022/09/13 12:56:46;;;;;;;;;;;20.40;82.90;;;;;;5094520;28;19908;-53
2022/09/13 12:59:21;;;;;;;;;;;20.40;82.90;;;;;;5095904;28;19908;-54
2022/09/13 13:01:48;;;;;;;;;;;20.40;82.90;;;;;;5095418;28;19915;-56
2022/09/13 13:04:15;;;;;;;;;;;20.40;82.90;;;;;;5095369;28;20324;-57
2022/09/13 13:06:48;;;;;;;;;;;20.40;82.90;;;;;;5095539;28;20336;-51
2022/09/13 13:09:22;;;;;;;;;;;20.40;82.90;;;;;;5095608;28;19919;-53
2022/09/13 13:11:50;;;;;;;;;;;20.40;82.90;;;;;;5096048;28;20061;-56
2022/09/13 13:14:27;;;;;;;;;;;20.40;82.90;;;;;;5095436;28;19915;-53
2022/09/13 13:16:52;;;;;;;;;;;20.40;82.90;;;;;;5095168;28;20397;-52
2022/09/13 13:19:31;;;;;;;;;;;20.40;82.90;;;;;;5095460;28;19908;-56
2022/09/13 13:22:16;;;;;;;;;;;20.40;82.90;;;;;;5094895;28;19908;-54
2022/09/13 13:24:45;;;;;;;;;;;20.40;82.90;;;;;;5094884;28;20294;-55
2022/09/13 13:27:30;;;;;;;;;;;20.40;82.90;;;;;;5076796;28;20378;-56
2022/09/13 13:30:18;;;;;;;;;;;20.40;82.90;;;;;;5095236;28;19912;-54
2022/09/13 13:33:02;;;;;;;;;;;20.40;82.90;;;;;;5094764;28;19968;-54
2022/09/13 13:35:31;;;;;;;;;;;20.40;82.90;;;;;;5094863;28;19915;-52
2022/09/13 13:38:13;;;;;;;;;;;20.40;82.90;;;;;;5094582;28;19951;-53
2022/09/13 13:40:38;;;;;;;;;;;20.40;82.90;;;;;;5094587;28;20039;-54
2022/09/13 13:43:28;;;;;;;;;;;20.40;82.90;;;;;;5095000;28;19954;-53
2022/09/13 13:46:16;;;;;;;;;;;20.40;82.90;;;;;;5095286;28;19912;-53
2022/09/13 13:48:42;;;;;;;;;;;20.40;82.90;;;;;;5094447;28;20021;-51
2022/09/13 13:51:16;;;;;;;;;;;20.40;82.90;;;;;;5076260;28;20356;-56
2022/09/13 13:53:46;;;;;;;;;;;20.40;82.90;;;;;;5094751;28;19919;-54
2022/09/13 13:56:16;;;;;;;;;;;20.40;82.90;;;;;;5094881;28;19908;-54
2022/09/13 13:58:45;;;;;;;;;;;20.40;82.90;;;;;;5094291;28;20309;-55
2022/09/13 14:01:14;;;;;;;;;;;20.40;82.90;;;;;;5076065;28;19927;-55
2022/09/13 14:03:40;;;;;;;;;;;20.40;82.90;;;;;;5094273;28;19992;-52
2022/09/13 14:06:12;;;;;;;;;;;20.40;82.90;;;;;;5094085;28;20272;-57
2022/09/13 14:08:43;;;;;;;;;;;20.40;82.80;;;;;;5094247;28;20053;-53
2022/09/13 14:11:09;;;;;;;;;;;20.40;82.80;;;;;;5094464;28;19916;-54
2022/09/13 14:13:42;;;;;;;;;;;20.40;82.80;;;;;;5093766;28;19908;-54
2022/09/13 14:16:23;;;;;;;;;;;20.40;82.80;;;;;;5094396;28;19908;-55
2022/09/13 14:19:11;;;;;;;;;;;20.40;82.80;;;;;;5094240;28;19908;-56
2022/09/13 14:21:36;;;;;;;;;;;20.40;82.80;;;;;;5094034;28;19908;-56
2022/09/13 14:24:19;;;;;;;;;;;20.40;82.80;;;;;;5094279;28;19914;-54
2022/09/13 14:26:45;;;;;;;;;;;20.40;82.80;;;;;;5094226;28;19909;-53
2022/09/13 14:29:14;;;;;;;;;;;20.40;82.80;;;;;;5093577;28;19916;-52
2022/09/13 14:31:44;;;;;;;;;;;20.40;82.80;;;;;;5075982;28;20012;-55
2022/09/13 14:34:19;;;;;;;;;;;20.40;82.80;;;;;;5075611;28;19953;-52
2022/09/13 14:36:50;;;;;;;;;;;20.50;82.80;;;;;;5093802;28;19908;-52